首页
METAR-TAF:

METAR-TAF

机场 :

通孔廷国际机场

德古斯加巴, 洪都拉斯

纬度: 14-03N, 经度: 087-13W, 海拔: 994米

当前天气观测

该预报发布于36分钟前的12:00 UTC
风速4节,风向
温度 19°C
湿度 88%
气压 1021 hPa
能見度: 8000
少量云层高于1000英尺
多云层高于2400英尺

METAR: MHTG 181200Z 35004KT 8000 FEW010 BKN024 19/17 Q1021 A3015 NOSIG

时间: 06:36 (12:36 UTC)

预报

该预报发布于3小时和36分钟前的09:00 UTC
预报有效从18日的 12点(UTC)到 19日的 12点(UTC)
风速4节,风向
能见度10公里或以上
多云层高于2600英尺
成为
从 18日的 14点(UTC)到 18日的 15点(UTC)
风速10节,风向东转东北
能见度10公里或以上
少量云层高于2800英尺
散云层高于8000英尺
成为
从 18日的 19点(UTC)到 18日的 21点(UTC)
散云层高于3000英尺, 塔状积云.
散云层高于8000英尺
成为
从 19日的 01点(UTC)到 19日的 03点(UTC)
散云层高于2800英尺

TAF: MHTG 180900Z 1812/1912 36004KT 9999 BKN026 TX29/1820Z TN18/1912Z BECMG 1814/1815 06010KT 9999 FEW028 SCT080 BECMG 1819/1821 SCT030TCU SCT080 BECMG 1901/1903 SCT028

超过4000个机场的气象观测和天气预报(METAR&TAF报告)。

可查询的气象台以黄色和红色小点在地图上表示。

将鼠标移到小点上方,可查看气象台名称。

然后点击查看天气观测和预报。

如需切换地图:点击带黑十字的绿色按钮放大地图;点击带横线的绿色按钮缩小地图;或者点击绿色箭头查看邻近地区的地图。


METAR-TAF: